sensor_id;sensor_type;location;lat;lon;timestamp;pressure;altitude;pressure_sealevel;temperature;humidity
72855;BME280;60991;51.278;22.550;2022-10-30T00:00:30;99475.31;;;15.12;75.09
72855;BME280;60991;51.278;22.550;2022-10-30T00:02:00;99474.25;;;15.08;75.35
72855;BME280;60991;51.278;22.550;2022-10-30T00:03:30;99479.31;;;15.04;75.56
72855;BME280;60991;51.278;22.550;2022-10-30T00:05:00;99480.66;;;15.02;75.44
72855;BME280;60991;51.278;22.550;2022-10-30T00:06:31;99483.06;;;15.08;75.32
72855;BME280;60991;51.278;22.550;2022-10-30T00:08:01;99485.47;;;15.05;75.45
72855;BME280;60991;51.278;22.550;2022-10-30T00:09:31;99477.44;;;15.05;75.32
72855;BME280;60991;51.278;22.550;2022-10-30T00:11:09;99476.09;;;15.07;75.06
72855;BME280;60991;51.278;22.550;2022-10-30T00:12:40;99484.41;;;15.06;75.44
72855;BME280;60991;51.278;22.550;2022-10-30T00:14:10;99484.66;;;15.04;75.30
72855;BME280;60991;51.278;22.550;2022-10-30T00:15:46;99478.78;;;15.07;75.23
72855;BME280;60991;51.278;22.550;2022-10-30T00:17:17;99485.22;;;15.11;74.95
72855;BME280;60991;51.278;22.550;2022-10-30T00:18:47;99486.53;;;15.04;75.04
72855;BME280;60991;51.278;22.550;2022-10-30T00:20:17;99478.25;;;15.05;75.10
72855;BME280;60991;51.278;22.550;2022-10-30T00:21:47;99484.94;;;14.98;75.26
72855;BME280;60991;51.278;22.550;2022-10-30T00:23:18;99483.56;;;14.90;75.75
72855;BME280;60991;51.278;22.550;2022-10-30T00:24:48;99485.94;;;14.86;75.84
72855;BME280;60991;51.278;22.550;2022-10-30T00:26:20;99488.88;;;14.85;75.93
72855;BME280;60991;51.278;22.550;2022-10-30T00:27:51;99477.13;;;14.86;75.88
72855;BME280;60991;51.278;22.550;2022-10-30T00:29:21;99482.75;;;14.89;75.82
72855;BME280;60991;51.278;22.550;2022-10-30T00:30:51;99477.66;;;14.88;76.12
72855;BME280;60991;51.278;22.550;2022-10-30T00:32:21;99481.13;;;14.88;75.84
72855;BME280;60991;51.278;22.550;2022-10-30T00:33:53;99483.28;;;14.92;75.74
72855;BME280;60991;51.278;22.550;2022-10-30T00:35:23;99477.94;;;14.92;75.56
72855;BME280;60991;51.278;22.550;2022-10-30T00:36:53;99478.22;;;14.95;75.42
72855;BME280;60991;51.278;22.550;2022-10-30T00:38:24;99472.88;;;14.95;75.39
72855;BME280;60991;51.278;22.550;2022-10-30T00:39:54;99466.47;;;14.96;75.29
72855;BME280;60991;51.278;22.550;2022-10-30T00:41:24;99469.66;;;14.93;75.52
72855;BME280;60991;51.278;22.550;2022-10-30T00:42:55;99467.00;;;14.93;75.32
72855;BME280;60991;51.278;22.550;2022-10-30T00:46:26;99466.69;;;14.84;75.73
72855;BME280;60991;51.278;22.550;2022-10-30T00:48:01;99472.03;;;14.84;75.99
72855;BME280;60991;51.278;22.550;2022-10-30T00:49:38;99471.25;;;14.84;75.75
72855;BME280;60991;51.278;22.550;2022-10-30T00:51:13;99466.19;;;14.82;75.90
72855;BME280;60991;51.278;22.550;2022-10-30T00:53:11;99475.25;;;14.81;75.96
72855;BME280;60991;51.278;22.550;2022-10-30T00:54:46;99474.72;;;14.84;75.96
72855;BME280;60991;51.278;22.550;2022-10-30T00:56:19;99475.00;;;14.83;76.10
72855;BME280;60991;51.278;22.550;2022-10-30T00:57:51;99479.78;;;14.86;76.06
72855;BME280;60991;51.278;22.550;2022-10-30T00:59:26;99476.88;;;14.82;76.06
72855;BME280;60991;51.278;22.550;2022-10-30T01:01:00;99492.09;;;14.87;75.81
72855;BME280;60991;51.278;22.550;2022-10-30T01:02:31;99487.81;;;14.86;75.97
72855;BME280;60991;51.278;22.550;2022-10-30T01:04:03;99494.50;;;14.83;76.04
72855;BME280;60991;51.278;22.550;2022-10-30T01:05:34;99493.69;;;14.88;75.92
72855;BME280;60991;51.278;22.550;2022-10-30T01:07:12;99486.50;;;14.88;75.81
72855;BME280;60991;51.278;22.550;2022-10-30T01:08:47;99483.28;;;14.86;75.83
72855;BME280;60991;51.278;22.550;2022-10-30T01:10:18;99485.16;;;14.81;76.20
72855;BME280;60991;51.278;22.550;2022-10-30T01:11:48;99493.72;;;14.93;75.73
72855;BME280;60991;51.278;22.550;2022-10-30T01:13:20;99480.34;;;14.83;75.82
72855;BME280;60991;51.278;22.550;2022-10-30T01:14:55;99499.28;;;14.76;76.36
72855;BME280;60991;51.278;22.550;2022-10-30T01:20:30;99509.69;;;14.73;76.48
72855;BME280;60991;51.278;22.550;2022-10-30T01:27:23;99489.09;;;14.68;76.19
72855;BME280;60991;51.278;22.550;2022-10-30T01:31:30;99497.38;;;14.62;76.73
72855;BME280;60991;51.278;22.550;2022-10-30T01:33:15;99496.81;;;14.60;76.71
72855;BME280;60991;51.278;22.550;2022-10-30T01:34:58;99500.31;;;14.65;76.35
72855;BME280;60991;51.278;22.550;2022-10-30T01:36:56;99509.88;;;14.56;76.61
72855;BME280;60991;51.278;22.550;2022-10-30T01:40:22;99510.47;;;14.68;76.08
72855;BME280;60991;51.278;22.550;2022-10-30T01:41:52;99500.81;;;14.57;76.74
72855;BME280;60991;51.278;22.550;2022-10-30T01:43:22;99487.47;;;14.67;76.36
72855;BME280;60991;51.278;22.550;2022-10-30T01:44:53;99491.50;;;14.65;76.37
72855;BME280;60991;51.278;22.550;2022-10-30T01:52:35;99477.31;;;14.59;76.42
72855;BME280;60991;51.278;22.550;2022-10-30T01:54:22;99481.03;;;14.58;76.45
72855;BME280;60991;51.278;22.550;2022-10-30T01:59:54;99481.84;;;14.59;76.54
72855;BME280;60991;51.278;22.550;2022-10-30T02:01:27;99476.25;;;14.60;76.60
72855;BME280;60991;51.278;22.550;2022-10-30T02:02:58;99485.06;;;14.61;76.63
72855;BME280;60991;51.278;22.550;2022-10-30T02:04:29;99493.84;;;14.56;76.92
72855;BME280;60991;51.278;22.550;2022-10-30T02:06:00;99489.31;;;14.57;76.79
72855;BME280;60991;51.278;22.550;2022-10-30T02:07:31;99477.03;;;14.55;76.90
72855;BME280;60991;51.278;22.550;2022-10-30T02:09:01;99480.53;;;14.61;76.78
72855;BME280;60991;51.278;22.550;2022-10-30T02:10:34;99486.41;;;14.63;76.38
72855;BME280;60991;51.278;22.550;2022-10-30T02:12:06;99474.94;;;14.63;76.56
72855;BME280;60991;51.278;22.550;2022-10-30T02:13:37;99478.34;;;14.53;76.99
72855;BME280;60991;51.278;22.550;2022-10-30T02:15:08;99478.88;;;14.55;76.80
72855;BME280;60991;51.278;22.550;2022-10-30T02:16:44;99481.28;;;14.51;77.30
72855;BME280;60991;51.278;22.550;2022-10-30T02:18:15;99483.16;;;14.56;77.15
72855;BME280;60991;51.278;22.550;2022-10-30T02:19:45;99482.38;;;14.55;77.19
72855;BME280;60991;51.278;22.550;2022-10-30T02:21:15;99483.13;;;14.51;77.54
72855;BME280;60991;51.278;22.550;2022-10-30T02:22:46;99486.09;;;14.54;77.26
72855;BME280;60991;51.278;22.550;2022-10-30T02:24:16;99486.63;;;14.51;77.35
72855;BME280;60991;51.278;22.550;2022-10-30T02:25:46;99494.66;;;14.57;77.52
72855;BME280;60991;51.278;22.550;2022-10-30T02:27:16;99501.06;;;14.55;77.54
72855;BME280;60991;51.278;22.550;2022-10-30T02:28:47;99503.47;;;14.57;77.43
72855;BME280;60991;51.278;22.550;2022-10-30T02:30:17;99503.44;;;14.52;77.33
72855;BME280;60991;51.278;22.550;2022-10-30T02:31:47;99499.97;;;14.51;77.58
72855;BME280;60991;51.278;22.550;2022-10-30T02:33:18;99502.91;;;14.50;77.59
72855;BME280;60991;51.278;22.550;2022-10-30T02:34:48;99499.72;;;14.53;77.76
72855;BME280;60991;51.278;22.550;2022-10-30T02:36:18;99502.69;;;14.57;77.50
72855;BME280;60991;51.278;22.550;2022-10-30T02:37:48;99494.13;;;14.54;77.77
72855;BME280;60991;51.278;22.550;2022-10-30T02:39:19;99497.56;;;14.50;77.45
72855;BME280;60991;51.278;22.550;2022-10-30T02:40:49;99505.59;;;14.55;77.54
72855;BME280;60991;51.278;22.550;2022-10-30T02:42:19;99497.88;;;14.59;77.26
72855;BME280;60991;51.278;22.550;2022-10-30T02:43:50;99488.81;;;14.60;77.09
72855;BME280;60991;51.278;22.550;2022-10-30T02:45:20;99497.34;;;14.57;77.07
72855;BME280;60991;51.278;22.550;2022-10-30T02:46:51;99499.97;;;14.51;77.45
72855;BME280;60991;51.278;22.550;2022-10-30T02:48:21;99505.56;;;14.50;77.27
72855;BME280;60991;51.278;22.550;2022-10-30T02:49:51;99499.94;;;14.41;77.77
72855;BME280;60991;51.278;22.550;2022-10-30T02:51:21;99498.88;;;14.42;77.97
72855;BME280;60991;51.278;22.550;2022-10-30T02:52:52;99493.03;;;14.45;77.63
72855;BME280;60991;51.278;22.550;2022-10-30T02:54:22;99483.94;;;14.46;77.49
72855;BME280;60991;51.278;22.550;2022-10-30T02:55:52;99487.94;;;14.49;77.66
72855;BME280;60991;51.278;22.550;2022-10-30T02:57:23;99487.94;;;14.49;77.46
72855;BME280;60991;51.278;22.550;2022-10-30T02:58:56;99483.41;;;14.49;77.36
72855;BME280;60991;51.278;22.550;2022-10-30T03:00:26;99475.94;;;14.46;77.50
72855;BME280;60991;51.278;22.550;2022-10-30T03:01:56;99477.00;;;14.50;77.59
72855;BME280;60991;51.278;22.550;2022-10-30T03:03:26;99476.47;;;14.53;77.37
72855;BME280;60991;51.278;22.550;2022-10-30T03:04:57;99473.78;;;14.48;77.40
72855;BME280;60991;51.278;22.550;2022-10-30T03:06:27;99477.25;;;14.44;77.67
72855;BME280;60991;51.278;22.550;2022-10-30T03:07:57;99485.25;;;14.44;77.76
72855;BME280;60991;51.278;22.550;2022-10-30T03:09:27;99484.41;;;14.38;78.04
72855;BME280;60991;51.278;22.550;2022-10-30T03:11:05;99480.66;;;14.39;78.04
72855;BME280;60991;51.278;22.550;2022-10-30T03:12:35;99483.59;;;14.38;78.25
72855;BME280;60991;51.278;22.550;2022-10-30T03:14:06;99485.53;;;14.42;78.11
72855;BME280;60991;51.278;22.550;2022-10-30T03:15:36;99492.75;;;14.47;77.55
72855;BME280;60991;51.278;22.550;2022-10-30T03:17:06;99487.41;;;14.52;77.39
72855;BME280;60991;51.278;22.550;2022-10-30T03:18:36;99489.53;;;14.50;77.68
72855;BME280;60991;51.278;22.550;2022-10-30T03:20:07;99488.75;;;14.44;77.70
72855;BME280;60991;51.278;22.550;2022-10-30T03:21:37;99490.34;;;14.45;77.89
72855;BME280;60991;51.278;22.550;2022-10-30T03:23:07;99487.94;;;14.49;77.77
72855;BME280;60991;51.278;22.550;2022-10-30T03:24:38;99491.16;;;14.46;77.90
72855;BME280;60991;51.278;22.550;2022-10-30T03:26:08;99496.22;;;14.47;77.78
72855;BME280;60991;51.278;22.550;2022-10-30T03:27:39;99492.41;;;14.38;78.12
72855;BME280;60991;51.278;22.550;2022-10-30T03:29:09;99495.41;;;14.42;78.08
72855;BME280;60991;51.278;22.550;2022-10-30T03:30:39;99498.88;;;14.42;78.00
72855;BME280;60991;51.278;22.550;2022-10-30T03:32:10;99499.31;;;14.34;78.45
72855;BME280;60991;51.278;22.550;2022-10-30T03:33:40;99501.19;;;14.34;78.51
72855;BME280;60991;51.278;22.550;2022-10-30T03:35:10;99495.59;;;14.35;78.53
72855;BME280;60991;51.278;22.550;2022-10-30T03:36:41;99495.06;;;14.38;78.34
72855;BME280;60991;51.278;22.550;2022-10-30T03:38:11;99495.06;;;14.38;78.32
72855;BME280;60991;51.278;22.550;2022-10-30T03:39:42;99500.13;;;14.35;78.25
72855;BME280;60991;51.278;22.550;2022-10-30T03:41:12;99498.56;;;14.39;78.45
72855;BME280;60991;51.278;22.550;2022-10-30T03:42:42;99502.78;;;14.35;78.79
72855;BME280;60991;51.278;22.550;2022-10-30T03:44:12;99507.63;;;14.38;78.44
72855;BME280;60991;51.278;22.550;2022-10-30T03:45:47;99512.41;;;14.36;78.42
72855;BME280;60991;51.278;22.550;2022-10-30T03:47:17;99502.78;;;14.35;78.51
72855;BME280;60991;51.278;22.550;2022-10-30T03:48:48;99504.97;;;14.38;78.69
72855;BME280;60991;51.278;22.550;2022-10-30T03:50:18;99505.50;;;14.40;78.63
72855;BME280;60991;51.278;22.550;2022-10-30T04:03:30;99513.22;;;14.36;78.62
72855;BME280;60991;51.278;22.550;2022-10-30T04:05:00;99517.06;;;14.45;78.32
72855;BME280;60991;51.278;22.550;2022-10-30T04:06:30;99512.53;;;14.46;78.33
72855;BME280;60991;51.278;22.550;2022-10-30T04:08:03;99505.81;;;14.43;78.13
72855;BME280;60991;51.278;22.550;2022-10-30T04:13:04;99505.50;;;14.40;78.16
72855;BME280;60991;51.278;22.550;2022-10-30T04:16:15;99503.16;;;14.43;78.01
72855;BME280;60991;51.278;22.550;2022-10-30T04:17:52;99503.41;;;14.42;78.14
72855;BME280;60991;51.278;22.550;2022-10-30T04:19:22;99501.81;;;14.41;78.04
72855;BME280;60991;51.278;22.550;2022-10-30T04:20:53;99502.03;;;14.39;78.33
72855;BME280;60991;51.278;22.550;2022-10-30T04:22:23;99505.28;;;14.41;78.13
72855;BME280;60991;51.278;22.550;2022-10-30T04:23:53;99500.47;;;14.43;78.16
72855;BME280;60991;51.278;22.550;2022-10-30T04:25:24;99500.63;;;14.32;78.50
72855;BME280;60991;51.278;22.550;2022-10-30T04:26:55;99503.09;;;14.38;78.61
72855;BME280;60991;51.278;22.550;2022-10-30T04:28:25;99497.97;;;14.32;78.69
72855;BME280;60991;51.278;22.550;2022-10-30T04:29:55;99499.06;;;14.36;78.58
72855;BME280;60991;51.278;22.550;2022-10-30T04:31:25;99501.81;;;14.41;78.24
72855;BME280;60991;51.278;22.550;2022-10-30T04:32:56;99497.50;;;14.40;78.33
72855;BME280;60991;51.278;22.550;2022-10-30T04:34:26;99495.59;;;14.35;78.53
72855;BME280;60991;51.278;22.550;2022-10-30T04:35:56;99498.31;;;14.40;78.28
72855;BME280;60991;51.278;22.550;2022-10-30T04:37:27;99490.53;;;14.39;78.65
72855;BME280;60991;51.278;22.550;2022-10-30T04:38:57;99488.94;;;14.38;78.63
72855;BME280;60991;51.278;22.550;2022-10-30T04:40:29;99486.59;;;14.41;78.59
72855;BME280;60991;51.278;22.550;2022-10-30T04:42:01;99496.22;;;14.47;78.13
72855;BME280;60991;51.278;22.550;2022-10-30T04:43:31;99492.75;;;14.47;78.07
72855;BME280;60991;51.278;22.550;2022-10-30T04:45:02;99484.47;;;14.43;78.39
72855;BME280;60991;51.278;22.550;2022-10-30T04:46:32;99491.94;;;14.41;78.48
72855;BME280;60991;51.278;22.550;2022-10-30T04:48:06;99486.25;;;14.38;78.70
72855;BME280;60991;51.278;22.550;2022-10-30T04:49:36;99488.13;;;14.37;78.57
72855;BME280;60991;51.278;22.550;2022-10-30T04:51:06;99487.31;;;14.37;78.82
72855;BME280;60991;51.278;22.550;2022-10-30T04:52:37;99491.06;;;14.36;78.97
72855;BME280;60991;51.278;22.550;2022-10-30T04:54:07;99486.53;;;14.36;78.71
72855;BME280;60991;51.278;22.550;2022-10-30T04:55:37;99485.78;;;14.41;78.68
72855;BME280;60991;51.278;22.550;2022-10-30T04:57:07;99495.41;;;14.42;78.84
72855;BME280;60991;51.278;22.550;2022-10-30T04:58:37;99497.56;;;14.45;78.43
72855;BME280;60991;51.278;22.550;2022-10-30T05:00:09;99499.16;;;14.46;78.28
72855;BME280;60991;51.278;22.550;2022-10-30T05:01:39;99506.66;;;14.54;78.05
72855;BME280;60991;51.278;22.550;2022-10-30T05:03:21;99502.09;;;14.44;78.26
72855;BME280;60991;51.278;22.550;2022-10-30T05:04:51;99502.34;;;14.43;78.20
72855;BME280;60991;51.278;22.550;2022-10-30T05:06:24;99498.81;;;14.37;78.56
72855;BME280;60991;51.278;22.550;2022-10-30T05:07:55;99496.91;;;14.33;78.79
72855;BME280;60991;51.278;22.550;2022-10-30T05:09:25;99501.72;;;14.36;78.83
72855;BME280;60991;51.278;22.550;2022-10-30T05:10:56;99502.84;;;14.40;78.74
72855;BME280;60991;51.278;22.550;2022-10-30T05:12:26;99497.75;;;14.38;78.50
72855;BME280;60991;51.278;22.550;2022-10-30T05:13:56;99499.13;;;14.41;78.58
72855;BME280;60991;51.278;22.550;2022-10-30T05:15:26;99503.97;;;14.44;78.47
72855;BME280;60991;51.278;22.550;2022-10-30T05:16:57;99502.91;;;14.45;78.34
72855;BME280;60991;51.278;22.550;2022-10-30T05:18:27;99504.22;;;14.42;78.49
72855;BME280;60991;51.278;22.550;2022-10-30T05:19:57;99505.81;;;14.43;78.54
72855;BME280;60991;51.278;22.550;2022-10-30T05:21:28;99511.16;;;14.43;78.36
72855;BME280;60991;51.278;22.550;2022-10-30T05:22:58;99517.56;;;14.42;78.60
72855;BME280;60991;51.278;22.550;2022-10-30T05:24:28;99518.94;;;14.50;78.18
72855;BME280;60991;51.278;22.550;2022-10-30T05:25:59;99515.38;;;14.39;78.62
72855;BME280;60991;51.278;22.550;2022-10-30T05:27:29;99518.63;;;14.41;78.78
72855;BME280;60991;51.278;22.550;2022-10-30T05:29:00;99517.81;;;14.41;78.64
72855;BME280;60991;51.278;22.550;2022-10-30T05:30:32;99522.66;;;14.44;78.75
72855;BME280;60991;51.278;22.550;2022-10-30T05:32:02;99514.84;;;14.37;78.75
72855;BME280;60991;51.278;22.550;2022-10-30T05:33:32;99521.53;;;14.40;78.68
72855;BME280;60991;51.278;22.550;2022-10-30T05:35:03;99527.63;;;14.35;79.22
72855;BME280;60991;51.278;22.550;2022-10-30T05:36:33;99516.91;;;14.30;79.13
72855;BME280;60991;51.278;22.550;2022-10-30T05:38:05;99527.88;;;14.34;79.09
72855;BME280;60991;51.278;22.550;2022-10-30T05:39:35;99526.53;;;14.26;79.15
72855;BME280;60991;51.278;22.550;2022-10-30T05:41:05;99521.19;;;14.26;79.70
72855;BME280;60991;51.278;22.550;2022-10-30T05:42:36;99524.41;;;14.33;79.52
72855;BME280;60991;51.278;22.550;2022-10-30T05:44:06;99521.31;;;14.41;78.84
72855;BME280;60991;51.278;22.550;2022-10-30T05:45:36;99523.16;;;14.41;78.93
72855;BME280;60991;51.278;22.550;2022-10-30T05:47:06;99520.44;;;14.36;79.32
72855;BME280;60991;51.278;22.550;2022-10-30T05:48:37;99519.13;;;14.38;78.83
72855;BME280;60991;51.278;22.550;2022-10-30T05:50:07;99519.91;;;14.39;78.87
72855;BME280;60991;51.278;22.550;2022-10-30T05:51:38;99526.94;;;14.45;78.69
72855;BME280;60991;51.278;22.550;2022-10-30T05:53:09;99528.25;;;14.47;78.47
72855;BME280;60991;51.278;22.550;2022-10-30T05:54:39;99528.00;;;14.49;78.57
72855;BME280;60991;51.278;22.550;2022-10-30T05:56:09;99528.00;;;14.44;78.48
72855;BME280;60991;51.278;22.550;2022-10-30T05:57:40;99525.06;;;14.45;78.54
72855;BME280;60991;51.278;22.550;2022-10-30T05:59:10;99529.59;;;14.45;78.83
72855;BME280;60991;51.278;22.550;2022-10-30T06:00:40;99524.53;;;14.43;78.77
72855;BME280;60991;51.278;22.550;2022-10-30T06:02:11;99523.22;;;14.46;78.48
72855;BME280;60991;51.278;22.550;2022-10-30T06:03:41;99526.88;;;14.40;79.00
72855;BME280;60991;51.278;22.550;2022-10-30T06:05:11;99524.25;;;14.45;78.67
72855;BME280;60991;51.278;22.550;2022-10-30T06:06:41;99520.53;;;14.46;78.40
72855;BME280;60991;51.278;22.550;2022-10-30T06:08:12;99520.00;;;14.49;78.42
72855;BME280;60991;51.278;22.550;2022-10-30T06:09:42;99520.25;;;14.47;78.42
72855;BME280;60991;51.278;22.550;2022-10-30T06:11:13;99515.44;;;14.44;78.49
72855;BME280;60991;51.278;22.550;2022-10-30T06:12:51;99515.09;;;14.36;78.96
72855;BME280;60991;51.278;22.550;2022-10-30T06:14:21;99515.91;;;14.36;79.13
72855;BME280;60991;51.278;22.550;2022-10-30T06:15:54;99520.19;;;14.37;79.18
72855;BME280;60991;51.278;22.550;2022-10-30T06:17:25;99516.00;;;14.46;78.79
72855;BME280;60991;51.278;22.550;2022-10-30T06:18:55;99511.09;;;14.38;79.25
72855;BME280;60991;51.278;22.550;2022-10-30T06:20:27;99516.19;;;14.40;79.04
72855;BME280;60991;51.278;22.550;2022-10-30T06:21:57;99515.31;;;14.29;79.65
72855;BME280;60991;51.278;22.550;2022-10-30T06:23:28;99516.69;;;14.37;79.29
72855;BME280;60991;51.278;22.550;2022-10-30T06:24:58;99509.31;;;14.49;79.16
72855;BME280;60991;51.278;22.550;2022-10-30T06:26:28;99521.03;;;14.43;79.19
72855;BME280;60991;51.278;22.550;2022-10-30T06:27:58;99519.91;;;14.39;79.52
72855;BME280;60991;51.278;22.550;2022-10-30T06:29:29;99514.25;;;14.30;79.60
72855;BME280;60991;51.278;22.550;2022-10-30T06:30:59;99518.38;;;14.43;79.34
72855;BME280;60991;51.278;22.550;2022-10-30T06:37:26;99528.94;;;14.33;79.93
72855;BME280;60991;51.278;22.550;2022-10-30T06:38:56;99528.41;;;14.31;80.02
72855;BME280;60991;51.278;22.550;2022-10-30T06:40:28;99532.72;;;14.37;79.83
72855;BME280;60991;51.278;22.550;2022-10-30T06:41:58;99527.19;;;14.48;79.49
72855;BME280;60991;51.278;22.550;2022-10-30T06:43:30;99517.31;;;14.44;79.73
72855;BME280;60991;51.278;22.550;2022-10-30T06:45:00;99525.31;;;14.44;79.72
72855;BME280;60991;51.278;22.550;2022-10-30T06:48:11;99525.78;;;14.36;80.16
72855;BME280;60991;51.278;22.550;2022-10-30T06:49:41;99529.75;;;14.33;80.23
72855;BME280;60991;51.278;22.550;2022-10-30T06:51:13;99525.25;;;14.39;79.99
72855;BME280;60991;51.278;22.550;2022-10-30T06:52:44;99523.63;;;14.33;80.35
72855;BME280;60991;51.278;22.550;2022-10-30T06:54:15;99528.19;;;14.37;80.22
72855;BME280;60991;51.278;22.550;2022-10-30T06:55:55;99531.72;;;14.43;80.18
72855;BME280;60991;51.278;22.550;2022-10-30T06:57:26;99528.28;;;14.52;79.56
72855;BME280;60991;51.278;22.550;2022-10-30T06:58:56;99532.06;;;14.57;79.43
72855;BME280;60991;51.278;22.550;2022-10-30T07:00:27;99523.53;;;14.60;79.44
72855;BME280;60991;51.278;22.550;2022-10-30T07:01:57;99525.94;;;14.61;79.44
72855;BME280;60991;51.278;22.550;2022-10-30T07:10:08;99530.50;;;14.61;79.08
72855;BME280;60991;51.278;22.550;2022-10-30T08:34:45;99541.69;;;15.40;74.67
72855;BME280;60991;51.278;22.550;2022-10-30T11:08:14;99486.34;;;18.75;50.53
72855;BME280;60991;51.278;22.550;2022-10-30T12:09:52;99475.97;;;19.44;49.85
72855;BME280;60991;51.278;22.550;2022-10-30T16:41:47;99429.91;;;15.37;65.77
72855;BME280;60991;51.278;22.550;2022-10-30T16:43:31;99441.66;;;15.36;65.89
72855;BME280;60991;51.278;22.550;2022-10-30T16:46:50;99441.66;;;15.36;65.80
72855;BME280;60991;51.278;22.550;2022-10-30T16:48:24;99451.56;;;15.36;65.81
72855;BME280;60991;51.278;22.550;2022-10-30T16:49:57;99446.75;;;15.38;65.94
72855;BME280;60991;51.278;22.550;2022-10-30T16:51:29;99443.28;;;15.37;66.03
72855;BME280;60991;51.278;22.550;2022-10-30T16:53:07;99439.00;;;15.36;65.97
72855;BME280;60991;51.278;22.550;2022-10-30T16:55:05;99439.53;;;15.33;66.35
72855;BME280;60991;51.278;22.550;2022-10-30T16:56:36;99444.84;;;15.28;66.48
72855;BME280;60991;51.278;22.550;2022-10-30T16:58:10;99447.25;;;15.24;66.75
72855;BME280;60991;51.278;22.550;2022-10-30T16:59:47;99452.06;;;15.22;66.88
72855;BME280;60991;51.278;22.550;2022-10-30T17:01:23;99448.59;;;15.22;66.76
72855;BME280;60991;51.278;22.550;2022-10-30T17:02:56;99457.97;;;15.19;67.15
72855;BME280;60991;51.278;22.550;2022-10-30T17:04:27;99457.72;;;15.21;67.16
72855;BME280;60991;51.278;22.550;2022-10-30T17:06:01;99463.03;;;15.16;66.99
72855;BME280;60991;51.278;22.550;2022-10-30T17:07:32;99466.25;;;15.18;67.29
72855;BME280;60991;51.278;22.550;2022-10-30T17:09:07;99464.63;;;15.22;67.23
72855;BME280;60991;51.278;22.550;2022-10-30T17:10:53;99467.59;;;15.20;67.18
72855;BME280;60991;51.278;22.550;2022-10-30T17:12:26;99467.31;;;15.17;67.50
72855;BME280;60991;51.278;22.550;2022-10-30T17:13:58;99468.13;;;15.22;67.37
72855;BME280;60991;51.278;22.550;2022-10-30T17:15:30;99461.44;;;15.25;67.47
72855;BME280;60991;51.278;22.550;2022-10-30T17:17:01;99460.66;;;15.19;67.64
72855;BME280;60991;51.278;22.550;2022-10-30T17:18:31;99464.09;;;15.25;67.74
72855;BME280;60991;51.278;22.550;2022-10-30T17:21:50;99451.00;;;15.23;67.67
72855;BME280;60991;51.278;22.550;2022-10-30T17:23:22;99449.94;;;15.30;67.54
72855;BME280;60991;51.278;22.550;2022-10-30T17:24:52;99446.47;;;15.29;67.45
72855;BME280;60991;51.278;22.550;2022-10-30T17:26:23;99446.44;;;15.24;67.80
72855;BME280;60991;51.278;22.550;2022-10-30T17:27:54;99448.34;;;15.29;67.65
72855;BME280;60991;51.278;22.550;2022-10-30T17:32:51;99440.56;;;15.17;68.12
72855;BME280;60991;51.278;22.550;2022-10-30T17:34:22;99434.94;;;15.23;67.98
72855;BME280;60991;51.278;22.550;2022-10-30T17:35:52;99443.78;;;15.19;68.04
72855;BME280;60991;51.278;22.550;2022-10-30T17:37:22;99448.84;;;15.10;68.13
72855;BME280;60991;51.278;22.550;2022-10-30T17:38:52;99454.44;;;15.04;68.65
72855;BME280;60991;51.278;22.550;2022-10-30T17:40:23;99449.38;;;15.02;68.72
72855;BME280;60991;51.278;22.550;2022-10-30T17:41:56;99453.38;;;15.05;68.64
72855;BME280;60991;51.278;22.550;2022-10-30T17:43:47;99450.44;;;15.06;68.78
72855;BME280;60991;51.278;22.550;2022-10-30T17:45:18;99442.16;;;15.08;68.71
72855;BME280;60991;51.278;22.550;2022-10-30T17:46:48;99448.56;;;15.07;68.51
72855;BME280;60991;51.278;22.550;2022-10-30T17:48:20;99450.19;;;15.08;68.59
72855;BME280;60991;51.278;22.550;2022-10-30T17:49:52;99448.28;;;15.03;69.07
72855;BME280;60991;51.278;22.550;2022-10-30T17:51:22;99448.84;;;15.00;69.00
72855;BME280;60991;51.278;22.550;2022-10-30T17:52:53;99452.06;;;15.02;68.90
72855;BME280;60991;51.278;22.550;2022-10-30T17:54:23;99450.69;;;15.05;69.04
72855;BME280;60991;51.278;22.550;2022-10-30T17:55:58;99452.88;;;15.03;69.04
72855;BME280;60991;51.278;22.550;2022-10-30T17:57:29;99451.78;;;14.99;69.28
72855;BME280;60991;51.278;22.550;2022-10-30T17:58:59;99450.44;;;14.96;69.30
72855;BME280;60991;51.278;22.550;2022-10-30T18:00:30;99450.69;;;14.95;69.31
72855;BME280;60991;51.278;22.550;2022-10-30T18:02:00;99448.03;;;15.00;69.35
72855;BME280;60991;51.278;22.550;2022-10-30T18:03:30;99441.09;;;14.99;69.25
72855;BME280;60991;51.278;22.550;2022-10-30T18:05:00;99441.34;;;14.97;69.44
72855;BME280;60991;51.278;22.550;2022-10-30T18:06:30;99443.22;;;14.97;69.66
72855;BME280;60991;51.278;22.550;2022-10-30T18:08:01;99444.31;;;15.01;69.61
72855;BME280;60991;51.278;22.550;2022-10-30T18:09:31;99440.81;;;15.00;69.40
72855;BME280;60991;51.278;22.550;2022-10-30T18:11:01;99448.56;;;14.97;69.71
72855;BME280;60991;51.278;22.550;2022-10-30T18:12:31;99453.13;;;15.01;69.51
72855;BME280;60991;51.278;22.550;2022-10-30T18:14:02;99460.88;;;15.03;69.50
72855;BME280;60991;51.278;22.550;2022-10-30T18:15:34;99454.97;;;15.06;69.37
72855;BME280;60991;51.278;22.550;2022-10-30T18:17:05;99456.06;;;15.05;69.54
72855;BME280;60991;51.278;22.550;2022-10-30T18:18:36;99462.19;;;15.05;69.35
72855;BME280;60991;51.278;22.550;2022-10-30T18:20:06;99451.78;;;15.09;69.58
72855;BME280;60991;51.278;22.550;2022-10-30T18:21:37;99456.06;;;15.10;69.57
72855;BME280;60991;51.278;22.550;2022-10-30T18:23:20;99451.78;;;15.04;69.38
72855;BME280;60991;51.278;22.550;2022-10-30T18:24:50;99448.84;;;15.00;69.76
72855;BME280;60991;51.278;22.550;2022-10-30T18:26:23;99446.41;;;15.04;69.53
72855;BME280;60991;51.278;22.550;2022-10-30T18:27:53;99449.09;;;15.04;69.58